Ludwig Schulte — 9VFK9 — position and weather

sailwx.info

Track history (hours):
 
Tides and Currents Weather Stations Pressure Air Temp Water Temp Dewpoint Dewpoint Depression Visibility Wind Speed Wind Dir Waves Ship Positions

Ludwig Schulte

Last reported at 2018-Jul-21 13:30 UTC. Time now 2018-Jul-21 13:49 UTC.
Position N 46°02' E 031°14'.

Length 175 m; draft 9.2 m.

Type: Ship (hazmat cat A). MMSI: 565970000.

Date/timePositionNaut miles runAvg speedWind from/ knotsBaromVisibWave heightAir tempDewpointWater temp
2018-Jul-21 13:30N 46°02' E 031°14'15017.6
2018-Jul-21 04:59N 43°37' E 030°19'917.6
2018-Jul-21 04:30N 43°29' E 030°15'917.5
2018-Jul-21 04:00N 43°20' E 030°11'917.4
2018-Jul-21 03:30N 43°12' E 030°07'917.3
2018-Jul-21 03:01N 43°04' E 030°04'917.5
2018-Jul-21 02:28N 42°55' E 029°59'817.6
2018-Jul-21 02:00N 42°47' E 029°55'41512.0
2018-Jul-19 15:30N 37°29' E 024°07'917.1
2018-Jul-19 15:00N 37°21' E 024°01'817.0
2018-Jul-19 14:31N 37°14' E 023°57'1717.2
2018-Jul-19 13:30N 36°58' E 023°48'917.4
2018-Jul-19 12:58N 36°49' E 023°43'39415.5
2018-Jul-18 11:28N 35°46' E 015°41'1716.6
2018-Jul-18 10:25N 35°45' E 015°20'2216.3
2018-Jul-18 09:03N 35°44' E 014°52'116.1
2018-Jul-18 09:00N 35°44' E 014°51'816.1
2018-Jul-18 08:30N 35°46' E 014°42'714.0
2018-Jul-18 07:59N 35°49' E 014°33'5 0.3
2018-Jul-17 15:47N 35°45' E 014°37'1 1.5
2018-Jul-17 15:17N 35°45' E 014°36'8111.4
2018-Jul-17 08:08N 36°23' E 013°07'4614.9
2018-Jul-17 05:02N 36°48' E 012°19'017.2
2018-Jul-17 05:00N 36°48' E 012°18'1017.3
2018-Jul-17 04:25N 36°53' E 012°07'817.0
2018-Jul-17 03:56N 36°57' E 011°58'39516.4
2018-Jul-16 03:47N 37°16' E 003°43'617.4
2018-Jul-16 03:25N 37°15' E 003°35'1217.4
2018-Jul-16 02:43N 37°12' E 003°20'3017.6
2018-Jul-16 01:01N 37°05' E 002°43'38318.7
2018-Jul-15 04:31N 35°57' W 005°06'120.6
2018-Jul-15 04:29N 35°57' W 005°07'1020.1
2018-Jul-15 04:01N 35°57' W 005°18'2518.3
2018-Jul-15 02:39N 35°53' W 005°49'  
2018-Jul-12 21:29N 36°08' W 005°25'0 0.0
2018-Jul-12 20:59N 36°08' W 005°25'0 0.0
2018-Jul-12 20:29N 36°08' W 005°25'0 0.0
2018-Jul-12 19:56N 36°08' W 005°25'0 0.0
2018-Jul-12 19:26N 36°08' W 005°25'193 7.3
2018-Jul-11 17:08N 36°21' W 001°27'2017.1
2018-Jul-11 15:58N 36°25' W 001°03'918.2
2018-Jul-11 15:28N 36°27' W 000°51'818.4
2018-Jul-11 15:00N 36°29' W 000°41'1218.1
2018-Jul-11 14:21N 36°32' W 000°27'617.6
2018-Jul-11 14:00N 36°33' W 000°19'  
Track history (hours):
 
Tides and Currents Weather Stations Pressure Air Temp Water Temp Dewpoint Dewpoint Depression Visibility Wind Speed Wind Dir Waves Ship Positions

Ludwig Schulte

Last reported at 2018-Jul-21 13:30 UTC. Time now 2018-Jul-21 13:49 UTC.
Position N 46°02' E 031°14'.

Length 175 m; draft 9.2 m.

Type: Ship (hazmat cat A). MMSI: 565970000.

Date/timePositionNaut miles runAvg speedWind from/ knotsBaromVisibWave heightAir tempDewpointWater temp
2018-Jul-21 13:30N 46°02' E 031°14'15017.6
2018-Jul-21 04:59N 43°37' E 030°19'917.6
2018-Jul-21 04:30N 43°29' E 030°15'917.5
2018-Jul-21 04:00N 43°20' E 030°11'917.4
2018-Jul-21 03:30N 43°12' E 030°07'917.3
2018-Jul-21 03:01N 43°04' E 030°04'917.5
2018-Jul-21 02:28N 42°55' E 029°59'817.6
2018-Jul-21 02:00N 42°47' E 029°55'41512.0
2018-Jul-19 15:30N 37°29' E 024°07'917.1
2018-Jul-19 15:00N 37°21' E 024°01'817.0
2018-Jul-19 14:31N 37°14' E 023°57'1717.2
2018-Jul-19 13:30N 36°58' E 023°48'917.4
2018-Jul-19 12:58N 36°49' E 023°43'39415.5
2018-Jul-18 11:28N 35°46' E 015°41'1716.6
2018-Jul-18 10:25N 35°45' E 015°20'2216.3
2018-Jul-18 09:03N 35°44' E 014°52'116.1
2018-Jul-18 09:00N 35°44' E 014°51'816.1
2018-Jul-18 08:30N 35°46' E 014°42'714.0
2018-Jul-18 07:59N 35°49' E 014°33'5 0.3
2018-Jul-17 15:47N 35°45' E 014°37'1 1.5
2018-Jul-17 15:17N 35°45' E 014°36'8111.4
2018-Jul-17 08:08N 36°23' E 013°07'4614.9
2018-Jul-17 05:02N 36°48' E 012°19'017.2
2018-Jul-17 05:00N 36°48' E 012°18'1017.3
2018-Jul-17 04:25N 36°53' E 012°07'817.0
2018-Jul-17 03:56N 36°57' E 011°58'39516.4
2018-Jul-16 03:47N 37°16' E 003°43'617.4
2018-Jul-16 03:25N 37°15' E 003°35'1217.4
2018-Jul-16 02:43N 37°12' E 003°20'3017.6
2018-Jul-16 01:01N 37°05' E 002°43'38318.7
2018-Jul-15 04:31N 35°57' W 005°06'120.6
2018-Jul-15 04:29N 35°57' W 005°07'1020.1
2018-Jul-15 04:01N 35°57' W 005°18'2518.3
2018-Jul-15 02:39N 35°53' W 005°49'  
2018-Jul-12 21:29N 36°08' W 005°25'0 0.0
2018-Jul-12 20:59N 36°08' W 005°25'0 0.0
2018-Jul-12 20:29N 36°08' W 005°25'0 0.0
2018-Jul-12 19:56N 36°08' W 005°25'0 0.0
2018-Jul-12 19:26N 36°08' W 005°25'193 7.3
2018-Jul-11 17:08N 36°21' W 001°27'2017.1
2018-Jul-11 15:58N 36°25' W 001°03'918.2
2018-Jul-11 15:28N 36°27' W 000°51'818.4
2018-Jul-11 15:00N 36°29' W 000°41'1218.1
2018-Jul-11 14:21N 36°32' W 000°27'617.6
2018-Jul-11 14:00N 36°33' W 000°19'  

Dump ship's entire track history